sensor_id;sensor_type;location;lat;lon;timestamp;P1;durP1;ratioP1;P2;durP2;ratioP2
69970;SDS011;57301;50.328;8.542;2023-02-01T00:00:23;11.63;;;5.20;;
69970;SDS011;57301;50.328;8.542;2023-02-01T00:02:50;13.40;;;4.68;;
69970;SDS011;57301;50.328;8.542;2023-02-01T00:05:16;10.70;;;5.10;;
69970;SDS011;57301;50.328;8.542;2023-02-01T00:07:46;8.23;;;4.15;;
69970;SDS011;57301;50.328;8.542;2023-02-01T00:10:14;10.65;;;4.38;;
69970;SDS011;57301;50.328;8.542;2023-02-01T00:12:40;8.43;;;4.88;;
69970;SDS011;57301;50.328;8.542;2023-02-01T00:15:07;10.93;;;4.32;;
69970;SDS011;57301;50.328;8.542;2023-02-01T00:17:34;10.43;;;4.87;;
69970;SDS011;57301;50.328;8.542;2023-02-01T00:20:00;9.75;;;4.78;;
69970;SDS011;57301;50.328;8.542;2023-02-01T00:22:27;10.52;;;5.25;;
69970;SDS011;57301;50.328;8.542;2023-02-01T00:24:54;13.27;;;5.75;;
69970;SDS011;57301;50.328;8.542;2023-02-01T00:27:20;9.27;;;5.32;;
69970;SDS011;57301;50.328;8.542;2023-02-01T00:29:47;9.33;;;5.57;;
69970;SDS011;57301;50.328;8.542;2023-02-01T00:32:14;10.40;;;5.78;;
69970;SDS011;57301;50.328;8.542;2023-02-01T00:34:40;12.38;;;6.35;;
69970;SDS011;57301;50.328;8.542;2023-02-01T00:37:07;12.00;;;5.80;;
69970;SDS011;57301;50.328;8.542;2023-02-01T00:39:33;13.38;;;6.13;;
69970;SDS011;57301;50.328;8.542;2023-02-01T00:42:00;11.47;;;6.43;;
69970;SDS011;57301;50.328;8.542;2023-02-01T00:44:28;12.73;;;6.07;;
69970;SDS011;57301;50.328;8.542;2023-02-01T00:46:59;11.90;;;5.85;;
69970;SDS011;57301;50.328;8.542;2023-02-01T00:49:26;10.68;;;6.25;;
69970;SDS011;57301;50.328;8.542;2023-02-01T00:51:53;13.98;;;6.88;;
69970;SDS011;57301;50.328;8.542;2023-02-01T00:54:19;10.17;;;6.27;;
69970;SDS011;57301;50.328;8.542;2023-02-01T00:56:46;11.63;;;6.82;;
69970;SDS011;57301;50.328;8.542;2023-02-01T00:59:12;12.98;;;6.50;;
69970;SDS011;57301;50.328;8.542;2023-02-01T01:01:38;12.35;;;5.93;;
69970;SDS011;57301;50.328;8.542;2023-02-01T01:04:05;10.82;;;5.20;;
69970;SDS011;57301;50.328;8.542;2023-02-01T01:06:32;11.87;;;5.90;;
69970;SDS011;57301;50.328;8.542;2023-02-01T01:09:00;12.35;;;6.28;;
69970;SDS011;57301;50.328;8.542;2023-02-01T01:11:29;11.25;;;6.13;;
69970;SDS011;57301;50.328;8.542;2023-02-01T01:13:58;10.55;;;5.40;;
69970;SDS011;57301;50.328;8.542;2023-02-01T01:16:27;11.25;;;6.30;;
69970;SDS011;57301;50.328;8.542;2023-02-01T01:18:55;9.00;;;5.50;;
69970;SDS011;57301;50.328;8.542;2023-02-01T01:21:22;11.95;;;6.00;;
69970;SDS011;57301;50.328;8.542;2023-02-01T01:23:48;8.32;;;5.95;;
69970;SDS011;57301;50.328;8.542;2023-02-01T01:26:16;9.93;;;5.82;;
69970;SDS011;57301;50.328;8.542;2023-02-01T01:28:45;12.23;;;6.28;;
69970;SDS011;57301;50.328;8.542;2023-02-01T01:31:12;10.73;;;5.10;;
69970;SDS011;57301;50.328;8.542;2023-02-01T01:33:40;9.70;;;5.32;;
69970;SDS011;57301;50.328;8.542;2023-02-01T01:36:07;10.95;;;5.57;;
69970;SDS011;57301;50.328;8.542;2023-02-01T01:38:38;9.57;;;5.40;;
69970;SDS011;57301;50.328;8.542;2023-02-01T01:41:05;7.53;;;5.00;;
69970;SDS011;57301;50.328;8.542;2023-02-01T01:46:28;10.73;;;5.10;;
69970;SDS011;57301;50.328;8.542;2023-02-01T01:51:29;9.40;;;5.03;;
69970;SDS011;57301;50.328;8.542;2023-02-01T01:54:02;10.48;;;5.53;;
69970;SDS011;57301;50.328;8.542;2023-02-01T01:56:34;8.93;;;5.13;;
69970;SDS011;57301;50.328;8.542;2023-02-01T01:59:01;11.55;;;5.30;;
69970;SDS011;57301;50.328;8.542;2023-02-01T02:01:28;11.73;;;5.45;;
69970;SDS011;57301;50.328;8.542;2023-02-01T02:03:55;12.15;;;4.78;;
69970;SDS011;57301;50.328;8.542;2023-02-01T02:08:56;9.80;;;5.00;;
69970;SDS011;57301;50.328;8.542;2023-02-01T02:11:23;10.40;;;5.22;;
69970;SDS011;57301;50.328;8.542;2023-02-01T02:13:50;10.35;;;5.45;;
69970;SDS011;57301;50.328;8.542;2023-02-01T02:16:25;9.27;;;4.88;;
69970;SDS011;57301;50.328;8.542;2023-02-01T02:25:12;9.98;;;5.85;;
69970;SDS011;57301;50.328;8.542;2023-02-01T02:33:39;10.20;;;4.90;;
69970;SDS011;57301;50.328;8.542;2023-02-01T02:39:07;11.60;;;5.10;;
69970;SDS011;57301;50.328;8.542;2023-02-01T02:45:16;10.10;;;4.55;;
69970;SDS011;57301;50.328;8.542;2023-02-01T02:48:16;9.75;;;4.18;;
69970;SDS011;57301;50.328;8.542;2023-02-01T02:50:51;9.90;;;4.60;;
69970;SDS011;57301;50.328;8.542;2023-02-01T02:56:44;10.93;;;4.35;;
69970;SDS011;57301;50.328;8.542;2023-02-01T02:59:29;10.68;;;4.03;;
69970;SDS011;57301;50.328;8.542;2023-02-01T03:02:15;12.65;;;4.32;;
69970;SDS011;57301;50.328;8.542;2023-02-01T03:05:02;9.87;;;3.87;;
69970;SDS011;57301;50.328;8.542;2023-02-01T03:10:14;12.07;;;4.32;;
69970;SDS011;57301;50.328;8.542;2023-02-01T03:12:48;10.65;;;4.50;;
69970;SDS011;57301;50.328;8.542;2023-02-01T03:15:33;13.80;;;4.10;;
69970;SDS011;57301;50.328;8.542;2023-02-01T03:18:06;18.27;;;6.47;;
69970;SDS011;57301;50.328;8.542;2023-02-01T03:20:43;16.75;;;5.35;;
69970;SDS011;57301;50.328;8.542;2023-02-01T03:23:13;11.60;;;4.18;;
69970;SDS011;57301;50.328;8.542;2023-02-01T03:25:42;20.52;;;5.72;;
69970;SDS011;57301;50.328;8.542;2023-02-01T03:28:09;11.85;;;4.50;;
69970;SDS011;57301;50.328;8.542;2023-02-01T03:30:38;8.30;;;3.60;;
69970;SDS011;57301;50.328;8.542;2023-02-01T03:33:09;8.52;;;3.45;;
69970;SDS011;57301;50.328;8.542;2023-02-01T03:35:55;9.77;;;3.88;;
69970;SDS011;57301;50.328;8.542;2023-02-01T03:46:46;9.50;;;3.10;;
69970;SDS011;57301;50.328;8.542;2023-02-01T03:49:29;11.27;;;4.13;;
69970;SDS011;57301;50.328;8.542;2023-02-01T03:52:00;11.18;;;3.08;;
69970;SDS011;57301;50.328;8.542;2023-02-01T03:54:28;11.93;;;3.20;;
69970;SDS011;57301;50.328;8.542;2023-02-01T03:56:57;9.67;;;3.20;;
69970;SDS011;57301;50.328;8.542;2023-02-01T03:59:27;10.02;;;3.28;;
69970;SDS011;57301;50.328;8.542;2023-02-01T04:01:54;10.75;;;3.50;;
69970;SDS011;57301;50.328;8.542;2023-02-01T04:04:20;12.43;;;3.25;;
69970;SDS011;57301;50.328;8.542;2023-02-01T04:06:47;9.95;;;3.42;;
69970;SDS011;57301;50.328;8.542;2023-02-01T04:09:15;9.93;;;3.33;;
69970;SDS011;57301;50.328;8.542;2023-02-01T04:11:43;9.20;;;3.55;;
69970;SDS011;57301;50.328;8.542;2023-02-01T04:14:09;13.07;;;3.50;;
69970;SDS011;57301;50.328;8.542;2023-02-01T04:16:36;16.10;;;3.83;;
69970;SDS011;57301;50.328;8.542;2023-02-01T04:19:02;11.93;;;3.75;;
69970;SDS011;57301;50.328;8.542;2023-02-01T04:21:29;12.73;;;3.67;;
69970;SDS011;57301;50.328;8.542;2023-02-01T04:23:55;11.23;;;3.63;;
69970;SDS011;57301;50.328;8.542;2023-02-01T04:26:22;11.43;;;3.85;;
69970;SDS011;57301;50.328;8.542;2023-02-01T04:28:49;15.45;;;3.75;;
69970;SDS011;57301;50.328;8.542;2023-02-01T04:31:15;11.43;;;3.75;;
69970;SDS011;57301;50.328;8.542;2023-02-01T04:33:43;12.60;;;4.17;;
69970;SDS011;57301;50.328;8.542;2023-02-01T04:36:10;14.40;;;3.80;;
69970;SDS011;57301;50.328;8.542;2023-02-01T04:38:36;13.25;;;3.90;;
69970;SDS011;57301;50.328;8.542;2023-02-01T04:41:03;13.82;;;4.88;;
69970;SDS011;57301;50.328;8.542;2023-02-01T04:43:29;9.45;;;3.65;;
69970;SDS011;57301;50.328;8.542;2023-02-01T04:45:55;11.50;;;3.90;;
69970;SDS011;57301;50.328;8.542;2023-02-01T04:48:22;13.20;;;3.67;;
69970;SDS011;57301;50.328;8.542;2023-02-01T04:50:50;12.30;;;3.63;;
69970;SDS011;57301;50.328;8.542;2023-02-01T04:53:17;11.95;;;3.40;;
69970;SDS011;57301;50.328;8.542;2023-02-01T04:55:43;10.48;;;3.45;;
69970;SDS011;57301;50.328;8.542;2023-02-01T04:58:10;14.17;;;4.10;;
69970;SDS011;57301;50.328;8.542;2023-02-01T05:00:37;10.55;;;3.53;;
69970;SDS011;57301;50.328;8.542;2023-02-01T05:03:03;12.23;;;4.05;;
69970;SDS011;57301;50.328;8.542;2023-02-01T05:05:30;8.25;;;3.17;;
69970;SDS011;57301;50.328;8.542;2023-02-01T05:07:57;8.55;;;2.72;;
69970;SDS011;57301;50.328;8.542;2023-02-01T05:10:24;10.03;;;3.60;;
69970;SDS011;57301;50.328;8.542;2023-02-01T05:12:50;14.60;;;3.63;;
69970;SDS011;57301;50.328;8.542;2023-02-01T05:15:35;11.88;;;3.67;;
69970;SDS011;57301;50.328;8.542;2023-02-01T05:18:02;9.70;;;3.15;;
69970;SDS011;57301;50.328;8.542;2023-02-01T05:20:28;11.52;;;3.05;;
69970;SDS011;57301;50.328;8.542;2023-02-01T05:22:55;12.30;;;3.00;;
69970;SDS011;57301;50.328;8.542;2023-02-01T05:25:21;14.43;;;3.60;;
69970;SDS011;57301;50.328;8.542;2023-02-01T05:27:48;11.98;;;2.97;;
69970;SDS011;57301;50.328;8.542;2023-02-01T05:30:14;10.98;;;3.00;;
69970;SDS011;57301;50.328;8.542;2023-02-01T05:32:41;11.20;;;2.97;;
69970;SDS011;57301;50.328;8.542;2023-02-01T05:35:08;10.43;;;3.13;;
69970;SDS011;57301;50.328;8.542;2023-02-01T05:37:35;11.90;;;2.88;;
69970;SDS011;57301;50.328;8.542;2023-02-01T05:40:02;16.83;;;4.88;;
69970;SDS011;57301;50.328;8.542;2023-02-01T05:42:28;28.35;;;10.40;;
69970;SDS011;57301;50.328;8.542;2023-02-01T05:44:55;12.60;;;3.10;;
69970;SDS011;57301;50.328;8.542;2023-02-01T05:47:21;11.90;;;2.70;;
69970;SDS011;57301;50.328;8.542;2023-02-01T05:49:48;17.67;;;3.88;;
69970;SDS011;57301;50.328;8.542;2023-02-01T05:52:14;10.20;;;3.33;;
69970;SDS011;57301;50.328;8.542;2023-02-01T05:54:45;12.15;;;3.40;;
69970;SDS011;57301;50.328;8.542;2023-02-01T05:57:13;11.23;;;3.22;;
69970;SDS011;57301;50.328;8.542;2023-02-01T05:59:40;11.73;;;3.40;;
69970;SDS011;57301;50.328;8.542;2023-02-01T06:02:11;9.88;;;3.17;;
69970;SDS011;57301;50.328;8.542;2023-02-01T06:04:38;14.70;;;3.75;;
69970;SDS011;57301;50.328;8.542;2023-02-01T06:07:06;9.23;;;3.53;;
69970;SDS011;57301;50.328;8.542;2023-02-01T06:09:34;21.08;;;6.57;;
69970;SDS011;57301;50.328;8.542;2023-02-01T06:12:01;12.50;;;3.83;;
69970;SDS011;57301;50.328;8.542;2023-02-01T06:14:29;8.90;;;2.97;;
69970;SDS011;57301;50.328;8.542;2023-02-01T06:16:56;10.75;;;3.33;;
69970;SDS011;57301;50.328;8.542;2023-02-01T06:19:23;13.73;;;3.47;;
69970;SDS011;57301;50.328;8.542;2023-02-01T06:21:50;10.02;;;3.33;;
69970;SDS011;57301;50.328;8.542;2023-02-01T06:24:17;11.33;;;3.60;;
69970;SDS011;57301;50.328;8.542;2023-02-01T06:26:43;13.35;;;3.30;;
69970;SDS011;57301;50.328;8.542;2023-02-01T06:29:10;15.30;;;3.53;;
69970;SDS011;57301;50.328;8.542;2023-02-01T06:31:37;11.50;;;3.35;;
69970;SDS011;57301;50.328;8.542;2023-02-01T06:34:03;15.15;;;3.95;;
69970;SDS011;57301;50.328;8.542;2023-02-01T06:36:30;13.80;;;3.67;;
69970;SDS011;57301;50.328;8.542;2023-02-01T06:38:56;11.35;;;3.22;;
69970;SDS011;57301;50.328;8.542;2023-02-01T06:41:25;11.52;;;3.53;;
69970;SDS011;57301;50.328;8.542;2023-02-01T06:43:54;17.13;;;3.95;;
69970;SDS011;57301;50.328;8.542;2023-02-01T06:46:21;10.07;;;3.70;;
69970;SDS011;57301;50.328;8.542;2023-02-01T06:48:48;12.90;;;3.27;;
69970;SDS011;57301;50.328;8.542;2023-02-01T06:51:18;14.18;;;3.47;;
69970;SDS011;57301;50.328;8.542;2023-02-01T06:53:46;11.65;;;3.42;;
69970;SDS011;57301;50.328;8.542;2023-02-01T06:56:13;11.52;;;3.65;;
69970;SDS011;57301;50.328;8.542;2023-02-01T06:58:39;12.85;;;3.78;;
69970;SDS011;57301;50.328;8.542;2023-02-01T07:01:06;15.40;;;4.03;;
69970;SDS011;57301;50.328;8.542;2023-02-01T07:03:34;17.08;;;3.83;;
69970;SDS011;57301;50.328;8.542;2023-02-01T07:06:01;13.98;;;3.30;;
69970;SDS011;57301;50.328;8.542;2023-02-01T07:08:33;13.73;;;3.47;;
69970;SDS011;57301;50.328;8.542;2023-02-01T07:11:05;10.40;;;3.65;;
69970;SDS011;57301;50.328;8.542;2023-02-01T07:13:37;10.63;;;3.60;;
69970;SDS011;57301;50.328;8.542;2023-02-01T07:16:04;11.25;;;3.15;;
69970;SDS011;57301;50.328;8.542;2023-02-01T07:18:33;15.52;;;3.60;;
69970;SDS011;57301;50.328;8.542;2023-02-01T07:20:59;8.50;;;3.30;;
69970;SDS011;57301;50.328;8.542;2023-02-01T07:23:26;10.52;;;2.97;;
69970;SDS011;57301;50.328;8.542;2023-02-01T07:25:54;13.20;;;3.20;;
69970;SDS011;57301;50.328;8.542;2023-02-01T07:28:22;11.00;;;3.45;;
69970;SDS011;57301;50.328;8.542;2023-02-01T07:30:48;10.25;;;3.70;;
69970;SDS011;57301;50.328;8.542;2023-02-01T07:33:18;9.25;;;3.08;;
69970;SDS011;57301;50.328;8.542;2023-02-01T07:35:45;11.80;;;2.88;;
69970;SDS011;57301;50.328;8.542;2023-02-01T07:38:13;10.47;;;3.10;;
69970;SDS011;57301;50.328;8.542;2023-02-01T07:40:40;14.40;;;4.07;;
69970;SDS011;57301;50.328;8.542;2023-02-01T07:43:07;13.63;;;3.75;;
69970;SDS011;57301;50.328;8.542;2023-02-01T07:45:34;9.40;;;3.10;;
69970;SDS011;57301;50.328;8.542;2023-02-01T07:48:02;8.88;;;3.28;;
69970;SDS011;57301;50.328;8.542;2023-02-01T07:50:29;15.13;;;3.60;;
69970;SDS011;57301;50.328;8.542;2023-02-01T07:52:57;12.18;;;3.58;;
69970;SDS011;57301;50.328;8.542;2023-02-01T07:55:25;9.02;;;3.20;;
69970;SDS011;57301;50.328;8.542;2023-02-01T07:57:51;9.18;;;2.70;;
69970;SDS011;57301;50.328;8.542;2023-02-01T08:00:18;13.10;;;3.58;;
69970;SDS011;57301;50.328;8.542;2023-02-01T08:03:04;11.73;;;2.90;;
69970;SDS011;57301;50.328;8.542;2023-02-01T08:05:31;12.77;;;3.67;;
69970;SDS011;57301;50.328;8.542;2023-02-01T08:07:57;10.77;;;3.22;;
69970;SDS011;57301;50.328;8.542;2023-02-01T08:10:24;13.57;;;3.72;;
69970;SDS011;57301;50.328;8.542;2023-02-01T08:12:50;14.05;;;4.40;;
69970;SDS011;57301;50.328;8.542;2023-02-01T08:15:18;11.97;;;3.70;;
69970;SDS011;57301;50.328;8.542;2023-02-01T08:17:48;11.90;;;3.85;;
69970;SDS011;57301;50.328;8.542;2023-02-01T08:20:15;17.45;;;3.50;;
69970;SDS011;57301;50.328;8.542;2023-02-01T08:22:42;12.93;;;3.25;;
69970;SDS011;57301;50.328;8.542;2023-02-01T08:25:09;10.30;;;3.53;;
69970;SDS011;57301;50.328;8.542;2023-02-01T08:27:36;13.77;;;3.30;;
69970;SDS011;57301;50.328;8.542;2023-02-01T08:30:04;9.35;;;2.88;;
69970;SDS011;57301;50.328;8.542;2023-02-01T08:32:31;15.95;;;3.13;;
69970;SDS011;57301;50.328;8.542;2023-02-01T08:34:59;12.77;;;3.63;;
69970;SDS011;57301;50.328;8.542;2023-02-01T08:37:26;9.05;;;3.53;;
69970;SDS011;57301;50.328;8.542;2023-02-01T08:39:52;14.27;;;3.60;;
69970;SDS011;57301;50.328;8.542;2023-02-01T08:42:19;9.85;;;3.17;;
69970;SDS011;57301;50.328;8.542;2023-02-01T08:45:05;13.93;;;3.15;;
69970;SDS011;57301;50.328;8.542;2023-02-01T08:47:34;15.07;;;3.70;;
69970;SDS011;57301;50.328;8.542;2023-02-01T08:50:01;10.52;;;3.33;;
69970;SDS011;57301;50.328;8.542;2023-02-01T08:52:27;17.03;;;3.50;;
69970;SDS011;57301;50.328;8.542;2023-02-01T08:54:54;11.60;;;3.33;;
69970;SDS011;57301;50.328;8.542;2023-02-01T08:57:20;11.52;;;3.38;;
69970;SDS011;57301;50.328;8.542;2023-02-01T08:59:47;14.10;;;3.80;;
69970;SDS011;57301;50.328;8.542;2023-02-01T09:02:15;9.50;;;3.30;;
69970;SDS011;57301;50.328;8.542;2023-02-01T09:04:42;13.50;;;3.50;;
69970;SDS011;57301;50.328;8.542;2023-02-01T09:07:09;11.75;;;3.83;;
69970;SDS011;57301;50.328;8.542;2023-02-01T09:09:36;12.07;;;3.78;;
69970;SDS011;57301;50.328;8.542;2023-02-01T09:12:03;13.48;;;3.40;;
69970;SDS011;57301;50.328;8.542;2023-02-01T09:14:30;10.80;;;3.15;;
69970;SDS011;57301;50.328;8.542;2023-02-01T09:16:56;16.30;;;3.57;;
69970;SDS011;57301;50.328;8.542;2023-02-01T09:19:23;13.18;;;3.70;;
69970;SDS011;57301;50.328;8.542;2023-02-01T09:21:52;9.80;;;3.70;;
69970;SDS011;57301;50.328;8.542;2023-02-01T09:24:18;13.27;;;3.10;;
69970;SDS011;57301;50.328;8.542;2023-02-01T09:26:45;11.43;;;3.28;;
69970;SDS011;57301;50.328;8.542;2023-02-01T09:29:13;13.73;;;3.53;;
69970;SDS011;57301;50.328;8.542;2023-02-01T09:31:40;12.63;;;3.42;;
69970;SDS011;57301;50.328;8.542;2023-02-01T09:34:15;14.20;;;3.97;;
69970;SDS011;57301;50.328;8.542;2023-02-01T09:36:41;10.73;;;3.33;;
69970;SDS011;57301;50.328;8.542;2023-02-01T09:39:08;14.07;;;4.18;;
69970;SDS011;57301;50.328;8.542;2023-02-01T09:47:00;10.85;;;3.30;;
69970;SDS011;57301;50.328;8.542;2023-02-01T09:49:31;13.90;;;3.90;;
69970;SDS011;57301;50.328;8.542;2023-02-01T09:52:02;12.68;;;3.85;;
69970;SDS011;57301;50.328;8.542;2023-02-01T09:54:39;11.33;;;3.47;;
69970;SDS011;57301;50.328;8.542;2023-02-01T09:57:16;10.68;;;2.97;;
69970;SDS011;57301;50.328;8.542;2023-02-01T09:59:50;11.45;;;3.88;;
69970;SDS011;57301;50.328;8.542;2023-02-01T10:02:24;13.13;;;3.65;;
69970;SDS011;57301;50.328;8.542;2023-02-01T10:04:54;11.55;;;3.58;;
69970;SDS011;57301;50.328;8.542;2023-02-01T10:07:45;13.63;;;3.60;;
69970;SDS011;57301;50.328;8.542;2023-02-01T10:10:23;10.32;;;3.40;;
69970;SDS011;57301;50.328;8.542;2023-02-01T10:13:07;10.57;;;3.88;;
69970;SDS011;57301;50.328;8.542;2023-02-01T10:16:00;14.27;;;3.10;;
69970;SDS011;57301;50.328;8.542;2023-02-01T10:18:57;8.93;;;3.40;;
69970;SDS011;57301;50.328;8.542;2023-02-01T10:26:44;14.90;;;3.58;;
69970;SDS011;57301;50.328;8.542;2023-02-01T10:29:17;11.18;;;3.20;;
69970;SDS011;57301;50.328;8.542;2023-02-01T10:31:46;9.30;;;2.97;;
69970;SDS011;57301;50.328;8.542;2023-02-01T10:34:21;10.30;;;3.43;;
69970;SDS011;57301;50.328;8.542;2023-02-01T10:36:59;8.73;;;3.10;;
69970;SDS011;57301;50.328;8.542;2023-02-01T10:39:34;8.60;;;2.88;;
69970;SDS011;57301;50.328;8.542;2023-02-01T10:42:04;10.13;;;2.92;;
69970;SDS011;57301;50.328;8.542;2023-02-01T10:44:30;10.55;;;3.50;;
69970;SDS011;57301;50.328;8.542;2023-02-01T10:47:03;9.23;;;2.90;;
69970;SDS011;57301;50.328;8.542;2023-02-01T10:49:45;11.00;;;3.75;;
69970;SDS011;57301;50.328;8.542;2023-02-01T10:52:29;13.63;;;3.40;;
69970;SDS011;57301;50.328;8.542;2023-02-01T10:54:57;11.65;;;3.45;;
69970;SDS011;57301;50.328;8.542;2023-02-01T10:57:57;9.10;;;3.00;;
69970;SDS011;57301;50.328;8.542;2023-02-01T11:00:25;9.90;;;3.00;;
69970;SDS011;57301;50.328;8.542;2023-02-01T11:02:53;15.90;;;3.60;;
69970;SDS011;57301;50.328;8.542;2023-02-01T11:05:20;9.43;;;3.10;;
69970;SDS011;57301;50.328;8.542;2023-02-01T11:07:49;9.18;;;3.45;;
69970;SDS011;57301;50.328;8.542;2023-02-01T11:10:39;13.90;;;3.72;;
69970;SDS011;57301;50.328;8.542;2023-02-01T11:13:13;11.20;;;3.17;;
69970;SDS011;57301;50.328;8.542;2023-02-01T11:15:45;10.75;;;3.08;;
69970;SDS011;57301;50.328;8.542;2023-02-01T11:18:26;9.85;;;3.22;;
69970;SDS011;57301;50.328;8.542;2023-02-01T11:20:54;10.32;;;3.58;;
69970;SDS011;57301;50.328;8.542;2023-02-01T11:23:22;8.90;;;3.20;;
69970;SDS011;57301;50.328;8.542;2023-02-01T11:25:55;7.77;;;2.93;;
69970;SDS011;57301;50.328;8.542;2023-02-01T11:28:24;10.27;;;2.63;;
69970;SDS011;57301;50.328;8.542;2023-02-01T11:30:56;8.35;;;3.13;;
69970;SDS011;57301;50.328;8.542;2023-02-01T11:33:27;15.15;;;3.33;;
69970;SDS011;57301;50.328;8.542;2023-02-01T11:35:57;12.82;;;4.53;;
69970;SDS011;57301;50.328;8.542;2023-02-01T11:38:28;11.20;;;3.40;;
69970;SDS011;57301;50.328;8.542;2023-02-01T11:41:10;10.10;;;2.97;;
69970;SDS011;57301;50.328;8.542;2023-02-01T11:46:19;10.77;;;2.88;;
69970;SDS011;57301;50.328;8.542;2023-02-01T11:48:52;10.02;;;2.72;;
69970;SDS011;57301;50.328;8.542;2023-02-01T11:51:42;10.40;;;2.90;;
69970;SDS011;57301;50.328;8.542;2023-02-01T11:54:31;6.97;;;2.58;;
69970;SDS011;57301;50.328;8.542;2023-02-01T11:57:17;8.68;;;2.65;;
69970;SDS011;57301;50.328;8.542;2023-02-01T12:00:03;11.45;;;2.35;;
69970;SDS011;57301;50.328;8.542;2023-02-01T12:17:03;7.05;;;2.20;;
69970;SDS011;57301;50.328;8.542;2023-02-01T12:30:44;6.78;;;2.53;;
69970;SDS011;57301;50.328;8.542;2023-02-01T12:41:39;7.75;;;2.30;;
69970;SDS011;57301;50.328;8.542;2023-02-01T12:46:35;6.83;;;2.60;;
69970;SDS011;57301;50.328;8.542;2023-02-01T12:49:17;7.78;;;2.40;;
69970;SDS011;57301;50.328;8.542;2023-02-01T12:52:01;11.40;;;2.95;;
69970;SDS011;57301;50.328;8.542;2023-02-01T12:55:17;10.65;;;2.97;;
69970;SDS011;57301;50.328;8.542;2023-02-01T12:57:40;5.57;;;2.25;;
69970;SDS011;57301;50.328;8.542;2023-02-01T13:00:17;8.87;;;2.43;;
69970;SDS011;57301;50.328;8.542;2023-02-01T13:05:22;10.18;;;2.60;;
69970;SDS011;57301;50.328;8.542;2023-02-01T13:08:10;12.20;;;3.05;;
69970;SDS011;57301;50.328;8.542;2023-02-01T13:10:42;9.48;;;2.60;;
69970;SDS011;57301;50.328;8.542;2023-02-01T13:13:20;11.13;;;2.80;;
69970;SDS011;57301;50.328;8.542;2023-02-01T13:16:04;13.55;;;2.90;;
69970;SDS011;57301;50.328;8.542;2023-02-01T13:18:46;12.80;;;3.00;;
69970;SDS011;57301;50.328;8.542;2023-02-01T13:21:17;8.48;;;2.92;;
69970;SDS011;57301;50.328;8.542;2023-02-01T13:23:50;10.70;;;2.70;;
69970;SDS011;57301;50.328;8.542;2023-02-01T13:26:18;13.23;;;3.00;;
69970;SDS011;57301;50.328;8.542;2023-02-01T13:28:46;15.57;;;2.80;;
69970;SDS011;57301;50.328;8.542;2023-02-01T13:34:29;9.43;;;2.40;;
69970;SDS011;57301;50.328;8.542;2023-02-01T13:42:23;11.45;;;3.25;;
69970;SDS011;57301;50.328;8.542;2023-02-01T13:45:00;11.93;;;2.75;;
69970;SDS011;57301;50.328;8.542;2023-02-01T13:47:49;11.13;;;3.38;;
69970;SDS011;57301;50.328;8.542;2023-02-01T13:52:51;5.63;;;2.63;;
69970;SDS011;57301;50.328;8.542;2023-02-01T13:57:49;10.15;;;2.85;;
69970;SDS011;57301;50.328;8.542;2023-02-01T14:23:58;9.98;;;3.00;;
69970;SDS011;57301;50.328;8.542;2023-02-01T14:29:02;10.50;;;2.90;;
69970;SDS011;57301;50.328;8.542;2023-02-01T14:31:59;8.67;;;2.50;;
69970;SDS011;57301;50.328;8.542;2023-02-01T14:47:45;5.15;;;2.30;;
69970;SDS011;57301;50.328;8.542;2023-02-01T14:55:49;12.52;;;2.75;;
69970;SDS011;57301;50.328;8.542;2023-02-01T14:58:35;9.30;;;2.47;;
69970;SDS011;57301;50.328;8.542;2023-02-01T15:01:32;10.75;;;2.83;;
69970;SDS011;57301;50.328;8.542;2023-02-01T15:04:11;11.35;;;2.60;;
69970;SDS011;57301;50.328;8.542;2023-02-01T15:06:51;11.55;;;3.03;;
69970;SDS011;57301;50.328;8.542;2023-02-01T15:09:32;11.05;;;2.80;;
69970;SDS011;57301;50.328;8.542;2023-02-01T15:14:33;10.80;;;2.80;;
69970;SDS011;57301;50.328;8.542;2023-02-01T15:17:02;8.55;;;2.95;;
69970;SDS011;57301;50.328;8.542;2023-02-01T15:19:46;7.25;;;2.85;;
69970;SDS011;57301;50.328;8.542;2023-02-01T15:22:19;11.25;;;3.88;;
69970;SDS011;57301;50.328;8.542;2023-02-01T15:24:53;12.67;;;2.73;;
69970;SDS011;57301;50.328;8.542;2023-02-01T15:27:24;20.45;;;7.38;;
69970;SDS011;57301;50.328;8.542;2023-02-01T15:29:52;11.63;;;3.10;;
69970;SDS011;57301;50.328;8.542;2023-02-01T15:32:32;8.85;;;2.75;;
69970;SDS011;57301;50.328;8.542;2023-02-01T15:35:01;8.40;;;3.28;;
69970;SDS011;57301;50.328;8.542;2023-02-01T15:37:28;8.37;;;3.83;;
69970;SDS011;57301;50.328;8.542;2023-02-01T15:42:36;10.55;;;2.83;;
69970;SDS011;57301;50.328;8.542;2023-02-01T15:45:22;11.82;;;3.30;;
69970;SDS011;57301;50.328;8.542;2023-02-01T15:47:53;15.00;;;3.28;;
69970;SDS011;57301;50.328;8.542;2023-02-01T15:50:21;7.03;;;2.63;;
69970;SDS011;57301;50.328;8.542;2023-02-01T15:52:52;6.55;;;2.75;;
69970;SDS011;57301;50.328;8.542;2023-02-01T15:55:23;11.55;;;3.15;;
69970;SDS011;57301;50.328;8.542;2023-02-01T15:58:18;9.23;;;3.20;;
69970;SDS011;57301;50.328;8.542;2023-02-01T16:00:49;11.10;;;3.78;;
69970;SDS011;57301;50.328;8.542;2023-02-01T16:05:55;14.68;;;4.80;;
69970;SDS011;57301;50.328;8.542;2023-02-01T16:08:25;11.93;;;4.05;;
69970;SDS011;57301;50.328;8.542;2023-02-01T16:10:59;10.02;;;4.13;;
69970;SDS011;57301;50.328;8.542;2023-02-01T16:13:32;10.85;;;2.90;;
69970;SDS011;57301;50.328;8.542;2023-02-01T16:15:58;11.43;;;3.43;;
69970;SDS011;57301;50.328;8.542;2023-02-01T16:18:25;15.25;;;4.32;;
69970;SDS011;57301;50.328;8.542;2023-02-01T16:20:52;10.23;;;3.45;;
69970;SDS011;57301;50.328;8.542;2023-02-01T16:23:18;12.82;;;2.97;;
69970;SDS011;57301;50.328;8.542;2023-02-01T16:25:46;11.85;;;3.42;;
69970;SDS011;57301;50.328;8.542;2023-02-01T16:28:13;10.53;;;3.17;;
69970;SDS011;57301;50.328;8.542;2023-02-01T16:30:39;13.77;;;3.58;;
69970;SDS011;57301;50.328;8.542;2023-02-01T16:33:06;11.70;;;2.78;;
69970;SDS011;57301;50.328;8.542;2023-02-01T16:35:41;10.85;;;2.65;;
69970;SDS011;57301;50.328;8.542;2023-02-01T16:38:09;7.47;;;2.58;;
69970;SDS011;57301;50.328;8.542;2023-02-01T16:40:40;6.83;;;3.70;;
69970;SDS011;57301;50.328;8.542;2023-02-01T16:43:17;15.00;;;3.85;;
69970;SDS011;57301;50.328;8.542;2023-02-01T16:45:47;11.90;;;3.22;;
69970;SDS011;57301;50.328;8.542;2023-02-01T16:50:56;14.20;;;4.28;;
69970;SDS011;57301;50.328;8.542;2023-02-01T16:53:24;10.33;;;4.60;;
69970;SDS011;57301;50.328;8.542;2023-02-01T16:55:53;11.23;;;3.78;;
69970;SDS011;57301;50.328;8.542;2023-02-01T16:58:20;10.20;;;4.07;;
69970;SDS011;57301;50.328;8.542;2023-02-01T17:00:47;7.13;;;3.10;;
69970;SDS011;57301;50.328;8.542;2023-02-01T17:03:14;12.82;;;3.30;;
69970;SDS011;57301;50.328;8.542;2023-02-01T17:05:49;12.57;;;4.30;;
69970;SDS011;57301;50.328;8.542;2023-02-01T17:08:19;10.50;;;3.10;;
69970;SDS011;57301;50.328;8.542;2023-02-01T17:10:52;10.30;;;3.60;;
69970;SDS011;57301;50.328;8.542;2023-02-01T17:13:19;8.80;;;3.38;;
69970;SDS011;57301;50.328;8.542;2023-02-01T17:15:53;12.98;;;4.45;;
69970;SDS011;57301;50.328;8.542;2023-02-01T17:18:24;14.17;;;4.37;;
69970;SDS011;57301;50.328;8.542;2023-02-01T17:20:54;6.60;;;3.05;;
69970;SDS011;57301;50.328;8.542;2023-02-01T17:23:20;9.02;;;3.42;;
69970;SDS011;57301;50.328;8.542;2023-02-01T17:25:47;12.65;;;3.08;;
69970;SDS011;57301;50.328;8.542;2023-02-01T17:28:13;13.43;;;3.15;;
69970;SDS011;57301;50.328;8.542;2023-02-01T17:30:40;10.60;;;3.13;;
69970;SDS011;57301;50.328;8.542;2023-02-01T17:33:19;11.30;;;3.40;;
69970;SDS011;57301;50.328;8.542;2023-02-01T17:35:47;11.57;;;3.45;;
69970;SDS011;57301;50.328;8.542;2023-02-01T17:38:14;16.52;;;6.20;;
69970;SDS011;57301;50.328;8.542;2023-02-01T17:40:41;12.75;;;5.25;;